sensor_id;sensor_type;location;lat;lon;timestamp;P1;durP1;ratioP1;P2;durP2;ratioP2
10461;SDS011;5278;42.656;23.374;2023-02-01T00:01:04;4.43;;;3.77;;
10461;SDS011;5278;42.656;23.374;2023-02-01T00:03:32;4.30;;;3.90;;
10461;SDS011;5278;42.656;23.374;2023-02-01T00:05:59;4.37;;;3.80;;
10461;SDS011;5278;42.656;23.374;2023-02-01T00:08:26;4.57;;;4.17;;
10461;SDS011;5278;42.656;23.374;2023-02-01T00:10:59;4.70;;;4.27;;
10461;SDS011;5278;42.656;23.374;2023-02-01T00:13:28;5.20;;;3.90;;
10461;SDS011;5278;42.656;23.374;2023-02-01T00:16:03;4.87;;;4.10;;
10461;SDS011;5278;42.656;23.374;2023-02-01T00:18:31;4.63;;;3.60;;
10461;SDS011;5278;42.656;23.374;2023-02-01T00:20:58;4.30;;;3.40;;
10461;SDS011;5278;42.656;23.374;2023-02-01T00:23:25;3.23;;;2.80;;
10461;SDS011;5278;42.656;23.374;2023-02-01T00:25:52;3.17;;;2.90;;
10461;SDS011;5278;42.656;23.374;2023-02-01T00:28:19;3.17;;;2.60;;
10461;SDS011;5278;42.656;23.374;2023-02-01T00:30:46;4.83;;;3.03;;
10461;SDS011;5278;42.656;23.374;2023-02-01T00:33:15;2.97;;;2.70;;
10461;SDS011;5278;42.656;23.374;2023-02-01T00:35:42;3.77;;;3.00;;
10461;SDS011;5278;42.656;23.374;2023-02-01T00:38:09;4.47;;;3.30;;
10461;SDS011;5278;42.656;23.374;2023-02-01T00:40:36;4.13;;;3.10;;
10461;SDS011;5278;42.656;23.374;2023-02-01T00:43:02;2.77;;;2.50;;
10461;SDS011;5278;42.656;23.374;2023-02-01T00:45:29;3.07;;;2.77;;
10461;SDS011;5278;42.656;23.374;2023-02-01T00:47:56;3.30;;;3.07;;
10461;SDS011;5278;42.656;23.374;2023-02-01T00:50:25;3.50;;;3.20;;
10461;SDS011;5278;42.656;23.374;2023-02-01T00:52:52;4.57;;;2.90;;
10461;SDS011;5278;42.656;23.374;2023-02-01T00:55:19;3.73;;;2.90;;
10461;SDS011;5278;42.656;23.374;2023-02-01T00:57:45;4.00;;;3.33;;
10461;SDS011;5278;42.656;23.374;2023-02-01T01:00:13;3.87;;;3.03;;
10461;SDS011;5278;42.656;23.374;2023-02-01T01:02:41;3.40;;;2.77;;
10461;SDS011;5278;42.656;23.374;2023-02-01T01:05:08;3.50;;;3.20;;
10461;SDS011;5278;42.656;23.374;2023-02-01T01:07:37;3.47;;;2.73;;
10461;SDS011;5278;42.656;23.374;2023-02-01T01:10:05;4.37;;;3.13;;
10461;SDS011;5278;42.656;23.374;2023-02-01T01:12:32;3.13;;;2.47;;
10461;SDS011;5278;42.656;23.374;2023-02-01T01:14:59;3.17;;;2.83;;
10461;SDS011;5278;42.656;23.374;2023-02-01T01:17:26;3.60;;;2.70;;
10461;SDS011;5278;42.656;23.374;2023-02-01T01:19:53;3.10;;;2.80;;
10461;SDS011;5278;42.656;23.374;2023-02-01T01:22:19;3.43;;;2.90;;
10461;SDS011;5278;42.656;23.374;2023-02-01T01:24:48;5.07;;;3.03;;
10461;SDS011;5278;42.656;23.374;2023-02-01T01:27:14;4.57;;;2.90;;
10461;SDS011;5278;42.656;23.374;2023-02-01T01:29:47;3.97;;;2.90;;
10461;SDS011;5278;42.656;23.374;2023-02-01T01:32:14;3.60;;;2.67;;
10461;SDS011;5278;42.656;23.374;2023-02-01T01:34:41;5.53;;;3.00;;
10461;SDS011;5278;42.656;23.374;2023-02-01T01:37:08;4.17;;;2.50;;
10461;SDS011;5278;42.656;23.374;2023-02-01T01:39:35;2.70;;;2.50;;
10461;SDS011;5278;42.656;23.374;2023-02-01T01:42:03;2.67;;;2.47;;
10461;SDS011;5278;42.656;23.374;2023-02-01T01:47:33;4.10;;;2.50;;
10461;SDS011;5278;42.656;23.374;2023-02-01T01:50:04;4.03;;;2.63;;
10461;SDS011;5278;42.656;23.374;2023-02-01T01:52:33;3.43;;;2.83;;
10461;SDS011;5278;42.656;23.374;2023-02-01T01:55:01;4.73;;;2.80;;
10461;SDS011;5278;42.656;23.374;2023-02-01T01:57:33;2.47;;;2.27;;
10461;SDS011;5278;42.656;23.374;2023-02-01T02:00:04;3.80;;;2.50;;
10461;SDS011;5278;42.656;23.374;2023-02-01T02:02:34;3.10;;;2.70;;
10461;SDS011;5278;42.656;23.374;2023-02-01T02:05:03;2.67;;;2.47;;
10461;SDS011;5278;42.656;23.374;2023-02-01T02:07:32;3.23;;;2.70;;
10461;SDS011;5278;42.656;23.374;2023-02-01T02:10:03;4.17;;;2.77;;
10461;SDS011;5278;42.656;23.374;2023-02-01T02:12:34;3.23;;;2.80;;
10461;SDS011;5278;42.656;23.374;2023-02-01T02:15:02;3.63;;;2.60;;
10461;SDS011;5278;42.656;23.374;2023-02-01T02:17:31;2.73;;;2.53;;
10461;SDS011;5278;42.656;23.374;2023-02-01T02:35:19;3.83;;;2.83;;
10461;SDS011;5278;42.656;23.374;2023-02-01T02:37:58;2.60;;;2.30;;
10461;SDS011;5278;42.656;23.374;2023-02-01T02:40:37;3.63;;;2.40;;
10461;SDS011;5278;42.656;23.374;2023-02-01T02:43:13;3.10;;;2.70;;
10461;SDS011;5278;42.656;23.374;2023-02-01T02:46:05;5.00;;;2.87;;
10461;SDS011;5278;42.656;23.374;2023-02-01T02:49:00;4.07;;;2.20;;
10461;SDS011;5278;42.656;23.374;2023-02-01T02:51:37;2.50;;;2.20;;
10461;SDS011;5278;42.656;23.374;2023-02-01T02:54:25;2.73;;;2.30;;
10461;SDS011;5278;42.656;23.374;2023-02-01T02:57:18;3.00;;;2.50;;
10461;SDS011;5278;42.656;23.374;2023-02-01T03:00:05;3.47;;;2.50;;
10461;SDS011;5278;42.656;23.374;2023-02-01T03:02:54;2.63;;;2.43;;
10461;SDS011;5278;42.656;23.374;2023-02-01T03:05:40;2.80;;;2.20;;
10461;SDS011;5278;42.656;23.374;2023-02-01T03:10:53;3.33;;;2.60;;
10461;SDS011;5278;42.656;23.374;2023-02-01T03:13:26;2.20;;;2.00;;
10461;SDS011;5278;42.656;23.374;2023-02-01T03:16:00;2.40;;;2.20;;
10461;SDS011;5278;42.656;23.374;2023-02-01T03:18:32;3.67;;;2.20;;
10461;SDS011;5278;42.656;23.374;2023-02-01T03:21:04;3.27;;;2.50;;
10461;SDS011;5278;42.656;23.374;2023-02-01T03:23:36;3.97;;;2.03;;
10461;SDS011;5278;42.656;23.374;2023-02-01T03:26:04;4.70;;;2.27;;
10461;SDS011;5278;42.656;23.374;2023-02-01T03:28:34;2.80;;;1.97;;
10461;SDS011;5278;42.656;23.374;2023-02-01T03:31:03;2.17;;;1.97;;
10461;SDS011;5278;42.656;23.374;2023-02-01T03:33:30;2.80;;;2.17;;
10461;SDS011;5278;42.656;23.374;2023-02-01T03:36:03;2.83;;;1.93;;
10461;SDS011;5278;42.656;23.374;2023-02-01T03:38:42;2.80;;;2.10;;
10461;SDS011;5278;42.656;23.374;2023-02-01T03:41:18;3.50;;;2.37;;
10461;SDS011;5278;42.656;23.374;2023-02-01T03:43:52;3.53;;;2.17;;
10461;SDS011;5278;42.656;23.374;2023-02-01T03:46:24;2.30;;;1.80;;
10461;SDS011;5278;42.656;23.374;2023-02-01T03:48:57;2.20;;;1.93;;
10461;SDS011;5278;42.656;23.374;2023-02-01T03:51:28;5.00;;;2.40;;
10461;SDS011;5278;42.656;23.374;2023-02-01T03:53:58;3.63;;;2.03;;
10461;SDS011;5278;42.656;23.374;2023-02-01T03:56:27;3.77;;;1.87;;
10461;SDS011;5278;42.656;23.374;2023-02-01T03:58:57;2.63;;;2.07;;
10461;SDS011;5278;42.656;23.374;2023-02-01T04:01:27;3.23;;;1.97;;
10461;SDS011;5278;42.656;23.374;2023-02-01T04:03:55;2.17;;;1.90;;
10461;SDS011;5278;42.656;23.374;2023-02-01T04:06:24;2.97;;;2.17;;
10461;SDS011;5278;42.656;23.374;2023-02-01T04:08:51;3.03;;;1.87;;
10461;SDS011;5278;42.656;23.374;2023-02-01T04:11:20;2.33;;;2.10;;
10461;SDS011;5278;42.656;23.374;2023-02-01T04:13:46;2.60;;;2.40;;
10461;SDS011;5278;42.656;23.374;2023-02-01T04:16:13;3.00;;;2.10;;
10461;SDS011;5278;42.656;23.374;2023-02-01T04:18:40;2.17;;;1.97;;
10461;SDS011;5278;42.656;23.374;2023-02-01T04:21:08;3.03;;;1.97;;
10461;SDS011;5278;42.656;23.374;2023-02-01T04:23:35;2.50;;;2.30;;
10461;SDS011;5278;42.656;23.374;2023-02-01T04:26:03;3.57;;;2.30;;
10461;SDS011;5278;42.656;23.374;2023-02-01T04:28:32;6.43;;;2.40;;
10461;SDS011;5278;42.656;23.374;2023-02-01T04:30:58;2.20;;;2.03;;
10461;SDS011;5278;42.656;23.374;2023-02-01T04:33:28;2.63;;;2.43;;
10461;SDS011;5278;42.656;23.374;2023-02-01T04:35:55;2.63;;;2.20;;
10461;SDS011;5278;42.656;23.374;2023-02-01T04:38:22;2.30;;;2.07;;
10461;SDS011;5278;42.656;23.374;2023-02-01T04:40:50;3.53;;;2.57;;
10461;SDS011;5278;42.656;23.374;2023-02-01T04:43:17;2.20;;;2.00;;
10461;SDS011;5278;42.656;23.374;2023-02-01T04:45:56;2.60;;;2.20;;
10461;SDS011;5278;42.656;23.374;2023-02-01T04:48:24;3.13;;;2.70;;
10461;SDS011;5278;42.656;23.374;2023-02-01T04:50:51;3.60;;;2.93;;
10461;SDS011;5278;42.656;23.374;2023-02-01T04:53:18;3.63;;;2.60;;
10461;SDS011;5278;42.656;23.374;2023-02-01T04:55:47;4.57;;;3.30;;
10461;SDS011;5278;42.656;23.374;2023-02-01T04:58:14;4.60;;;2.80;;
10461;SDS011;5278;42.656;23.374;2023-02-01T05:00:42;4.30;;;3.33;;
10461;SDS011;5278;42.656;23.374;2023-02-01T05:03:10;7.03;;;2.80;;
10461;SDS011;5278;42.656;23.374;2023-02-01T05:05:37;5.17;;;3.17;;
10461;SDS011;5278;42.656;23.374;2023-02-01T05:08:04;2.60;;;2.40;;
10461;SDS011;5278;42.656;23.374;2023-02-01T05:10:32;4.40;;;3.27;;
10461;SDS011;5278;42.656;23.374;2023-02-01T05:12:58;5.97;;;3.13;;
10461;SDS011;5278;42.656;23.374;2023-02-01T05:15:43;5.63;;;2.93;;
10461;SDS011;5278;42.656;23.374;2023-02-01T05:18:13;5.10;;;2.83;;
10461;SDS011;5278;42.656;23.374;2023-02-01T05:20:39;4.20;;;2.60;;
10461;SDS011;5278;42.656;23.374;2023-02-01T05:23:06;3.20;;;2.90;;
10461;SDS011;5278;42.656;23.374;2023-02-01T05:25:33;6.77;;;3.33;;
10461;SDS011;5278;42.656;23.374;2023-02-01T05:28:00;7.17;;;3.50;;
10461;SDS011;5278;42.656;23.374;2023-02-01T05:30:27;4.00;;;2.90;;
10461;SDS011;5278;42.656;23.374;2023-02-01T05:32:54;3.50;;;3.03;;
10461;SDS011;5278;42.656;23.374;2023-02-01T05:35:22;3.77;;;3.37;;
10461;SDS011;5278;42.656;23.374;2023-02-01T05:37:49;3.13;;;2.57;;
10461;SDS011;5278;42.656;23.374;2023-02-01T05:40:17;4.00;;;3.27;;
10461;SDS011;5278;42.656;23.374;2023-02-01T05:42:43;7.00;;;3.53;;
10461;SDS011;5278;42.656;23.374;2023-02-01T05:45:10;6.13;;;3.40;;
10461;SDS011;5278;42.656;23.374;2023-02-01T05:47:37;4.30;;;3.20;;
10461;SDS011;5278;42.656;23.374;2023-02-01T05:50:05;7.33;;;3.43;;
10461;SDS011;5278;42.656;23.374;2023-02-01T05:52:34;4.27;;;2.93;;
10461;SDS011;5278;42.656;23.374;2023-02-01T05:55:01;4.27;;;3.23;;
10461;SDS011;5278;42.656;23.374;2023-02-01T05:57:28;4.47;;;3.33;;
10461;SDS011;5278;42.656;23.374;2023-02-01T05:59:55;4.77;;;3.67;;
10461;SDS011;5278;42.656;23.374;2023-02-01T06:02:21;4.27;;;3.47;;
10461;SDS011;5278;42.656;23.374;2023-02-01T06:04:49;5.27;;;2.80;;
10461;SDS011;5278;42.656;23.374;2023-02-01T06:07:16;4.23;;;2.90;;
10461;SDS011;5278;42.656;23.374;2023-02-01T06:09:44;7.27;;;2.97;;
10461;SDS011;5278;42.656;23.374;2023-02-01T06:12:12;3.53;;;2.80;;
10461;SDS011;5278;42.656;23.374;2023-02-01T06:14:39;7.17;;;3.43;;
10461;SDS011;5278;42.656;23.374;2023-02-01T06:17:06;5.87;;;2.97;;
10461;SDS011;5278;42.656;23.374;2023-02-01T06:19:33;5.03;;;2.80;;
10461;SDS011;5278;42.656;23.374;2023-02-01T06:22:01;5.43;;;3.30;;
10461;SDS011;5278;42.656;23.374;2023-02-01T06:24:31;9.43;;;3.70;;
10461;SDS011;5278;42.656;23.374;2023-02-01T06:26:59;4.33;;;3.33;;
10461;SDS011;5278;42.656;23.374;2023-02-01T06:29:26;5.30;;;3.20;;
10461;SDS011;5278;42.656;23.374;2023-02-01T06:31:53;4.17;;;2.70;;
10461;SDS011;5278;42.656;23.374;2023-02-01T06:34:20;6.03;;;3.10;;
10461;SDS011;5278;42.656;23.374;2023-02-01T06:36:48;6.57;;;3.40;;
10461;SDS011;5278;42.656;23.374;2023-02-01T06:39:14;9.80;;;3.53;;
10461;SDS011;5278;42.656;23.374;2023-02-01T06:41:41;5.23;;;2.93;;
10461;SDS011;5278;42.656;23.374;2023-02-01T06:44:10;4.83;;;2.83;;
10461;SDS011;5278;42.656;23.374;2023-02-01T06:46:38;4.10;;;2.83;;
10461;SDS011;5278;42.656;23.374;2023-02-01T06:49:05;6.77;;;3.23;;
10461;SDS011;5278;42.656;23.374;2023-02-01T06:51:32;3.73;;;2.90;;
10461;SDS011;5278;42.656;23.374;2023-02-01T06:54:00;4.97;;;3.03;;
10461;SDS011;5278;42.656;23.374;2023-02-01T06:56:27;4.53;;;2.90;;
10461;SDS011;5278;42.656;23.374;2023-02-01T06:58:56;4.53;;;3.40;;
10461;SDS011;5278;42.656;23.374;2023-02-01T07:01:25;4.47;;;3.33;;
10461;SDS011;5278;42.656;23.374;2023-02-01T07:03:51;6.23;;;2.93;;
10461;SDS011;5278;42.656;23.374;2023-02-01T07:06:19;3.47;;;2.47;;
10461;SDS011;5278;42.656;23.374;2023-02-01T07:08:46;8.10;;;2.97;;
10461;SDS011;5278;42.656;23.374;2023-02-01T07:11:13;4.90;;;2.37;;
10461;SDS011;5278;42.656;23.374;2023-02-01T07:13:41;4.13;;;3.00;;
10461;SDS011;5278;42.656;23.374;2023-02-01T07:16:10;3.03;;;2.30;;
10461;SDS011;5278;42.656;23.374;2023-02-01T07:18:40;3.13;;;2.30;;
10461;SDS011;5278;42.656;23.374;2023-02-01T07:21:07;4.93;;;2.30;;
10461;SDS011;5278;42.656;23.374;2023-02-01T07:23:34;5.27;;;2.80;;
10461;SDS011;5278;42.656;23.374;2023-02-01T07:26:02;5.60;;;2.50;;
10461;SDS011;5278;42.656;23.374;2023-02-01T07:28:32;5.40;;;2.67;;
10461;SDS011;5278;42.656;23.374;2023-02-01T07:31:04;4.13;;;2.70;;
10461;SDS011;5278;42.656;23.374;2023-02-01T07:33:32;6.10;;;2.30;;
10461;SDS011;5278;42.656;23.374;2023-02-01T07:36:02;4.17;;;2.40;;
10461;SDS011;5278;42.656;23.374;2023-02-01T07:38:30;2.93;;;1.97;;
10461;SDS011;5278;42.656;23.374;2023-02-01T07:40:59;4.97;;;2.33;;
10461;SDS011;5278;42.656;23.374;2023-02-01T07:43:26;3.90;;;2.90;;
10461;SDS011;5278;42.656;23.374;2023-02-01T07:45:54;4.40;;;2.60;;
10461;SDS011;5278;42.656;23.374;2023-02-01T07:48:21;2.93;;;2.63;;
10461;SDS011;5278;42.656;23.374;2023-02-01T07:50:56;3.80;;;2.77;;
10461;SDS011;5278;42.656;23.374;2023-02-01T07:53:25;5.70;;;2.83;;
10461;SDS011;5278;42.656;23.374;2023-02-01T07:55:52;2.63;;;2.20;;
10461;SDS011;5278;42.656;23.374;2023-02-01T07:58:19;4.13;;;2.40;;
10461;SDS011;5278;42.656;23.374;2023-02-01T08:00:45;4.23;;;2.10;;
10461;SDS011;5278;42.656;23.374;2023-02-01T08:03:30;6.37;;;2.77;;
10461;SDS011;5278;42.656;23.374;2023-02-01T08:05:56;2.87;;;2.50;;
10461;SDS011;5278;42.656;23.374;2023-02-01T08:08:26;2.70;;;2.23;;
10461;SDS011;5278;42.656;23.374;2023-02-01T08:10:56;4.73;;;2.20;;
10461;SDS011;5278;42.656;23.374;2023-02-01T08:13:24;3.27;;;2.43;;
10461;SDS011;5278;42.656;23.374;2023-02-01T08:15:51;5.00;;;2.40;;
10461;SDS011;5278;42.656;23.374;2023-02-01T08:18:18;4.80;;;2.67;;
10461;SDS011;5278;42.656;23.374;2023-02-01T08:20:45;3.37;;;2.43;;
10461;SDS011;5278;42.656;23.374;2023-02-01T08:23:12;4.40;;;3.00;;
10461;SDS011;5278;42.656;23.374;2023-02-01T08:25:41;1.90;;;1.73;;
10461;SDS011;5278;42.656;23.374;2023-02-01T08:28:08;3.57;;;2.23;;
10461;SDS011;5278;42.656;23.374;2023-02-01T08:30:37;3.10;;;2.20;;
10461;SDS011;5278;42.656;23.374;2023-02-01T08:33:04;2.97;;;1.90;;
10461;SDS011;5278;42.656;23.374;2023-02-01T08:35:32;4.40;;;2.40;;
10461;SDS011;5278;42.656;23.374;2023-02-01T08:38:01;5.93;;;2.37;;
10461;SDS011;5278;42.656;23.374;2023-02-01T08:40:27;7.93;;;2.47;;
10461;SDS011;5278;42.656;23.374;2023-02-01T08:42:56;3.27;;;1.90;;
10461;SDS011;5278;42.656;23.374;2023-02-01T08:45:24;4.83;;;2.53;;
10461;SDS011;5278;42.656;23.374;2023-02-01T08:47:54;7.27;;;2.70;;
10461;SDS011;5278;42.656;23.374;2023-02-01T08:50:22;4.93;;;2.57;;
10461;SDS011;5278;42.656;23.374;2023-02-01T08:52:49;3.97;;;2.73;;
10461;SDS011;5278;42.656;23.374;2023-02-01T08:55:17;4.60;;;2.67;;
10461;SDS011;5278;42.656;23.374;2023-02-01T08:57:44;5.87;;;3.03;;
10461;SDS011;5278;42.656;23.374;2023-02-01T09:00:14;3.57;;;2.50;;
10461;SDS011;5278;42.656;23.374;2023-02-01T09:02:43;3.40;;;2.07;;
10461;SDS011;5278;42.656;23.374;2023-02-01T09:05:10;3.97;;;2.37;;
10461;SDS011;5278;42.656;23.374;2023-02-01T09:07:39;4.23;;;2.53;;
10461;SDS011;5278;42.656;23.374;2023-02-01T09:10:06;2.87;;;2.00;;
10461;SDS011;5278;42.656;23.374;2023-02-01T09:12:33;6.00;;;2.50;;
10461;SDS011;5278;42.656;23.374;2023-02-01T09:15:01;4.03;;;2.20;;
10461;SDS011;5278;42.656;23.374;2023-02-01T09:17:32;6.13;;;2.03;;
10461;SDS011;5278;42.656;23.374;2023-02-01T09:20:00;3.67;;;2.17;;
10461;SDS011;5278;42.656;23.374;2023-02-01T09:22:27;4.67;;;2.43;;
10461;SDS011;5278;42.656;23.374;2023-02-01T09:24:54;4.50;;;2.30;;
10461;SDS011;5278;42.656;23.374;2023-02-01T09:27:21;2.60;;;2.27;;
10461;SDS011;5278;42.656;23.374;2023-02-01T09:29:49;3.57;;;2.33;;
10461;SDS011;5278;42.656;23.374;2023-02-01T09:32:18;3.23;;;2.10;;
10461;SDS011;5278;42.656;23.374;2023-02-01T09:34:48;3.47;;;2.10;;
10461;SDS011;5278;42.656;23.374;2023-02-01T09:37:15;6.80;;;2.80;;
10461;SDS011;5278;42.656;23.374;2023-02-01T09:39:42;3.47;;;2.03;;
10461;SDS011;5278;42.656;23.374;2023-02-01T09:42:21;4.83;;;1.97;;
10461;SDS011;5278;42.656;23.374;2023-02-01T09:45:06;2.90;;;2.13;;
10461;SDS011;5278;42.656;23.374;2023-02-01T09:47:44;2.73;;;2.03;;
10461;SDS011;5278;42.656;23.374;2023-02-01T09:50:17;2.77;;;2.03;;
10461;SDS011;5278;42.656;23.374;2023-02-01T09:52:50;4.97;;;2.17;;
10461;SDS011;5278;42.656;23.374;2023-02-01T09:55:23;3.63;;;2.00;;
10461;SDS011;5278;42.656;23.374;2023-02-01T09:58:00;2.50;;;1.90;;
10461;SDS011;5278;42.656;23.374;2023-02-01T10:00:31;3.27;;;2.13;;
10461;SDS011;5278;42.656;23.374;2023-02-01T10:03:01;3.97;;;2.30;;
10461;SDS011;5278;42.656;23.374;2023-02-01T10:08:30;4.90;;;2.33;;
10461;SDS011;5278;42.656;23.374;2023-02-01T10:11:04;5.50;;;2.83;;
10461;SDS011;5278;42.656;23.374;2023-02-01T10:13:47;3.03;;;2.30;;
10461;SDS011;5278;42.656;23.374;2023-02-01T10:16:25;5.30;;;2.50;;
10461;SDS011;5278;42.656;23.374;2023-02-01T10:19:07;3.77;;;2.30;;
10461;SDS011;5278;42.656;23.374;2023-02-01T10:21:49;3.20;;;1.80;;
10461;SDS011;5278;42.656;23.374;2023-02-01T10:24:22;3.13;;;1.93;;
10461;SDS011;5278;42.656;23.374;2023-02-01T10:27:01;2.63;;;2.00;;
10461;SDS011;5278;42.656;23.374;2023-02-01T10:29:34;2.87;;;2.13;;
10461;SDS011;5278;42.656;23.374;2023-02-01T10:32:07;4.40;;;2.87;;
10461;SDS011;5278;42.656;23.374;2023-02-01T10:34:47;2.60;;;2.03;;
10461;SDS011;5278;42.656;23.374;2023-02-01T10:37:23;4.77;;;2.37;;
10461;SDS011;5278;42.656;23.374;2023-02-01T10:39:53;3.43;;;2.40;;
10461;SDS011;5278;42.656;23.374;2023-02-01T10:42:24;3.70;;;2.20;;
10461;SDS011;5278;42.656;23.374;2023-02-01T10:44:53;5.40;;;2.10;;
10461;SDS011;5278;42.656;23.374;2023-02-01T10:47:22;4.23;;;2.50;;
10461;SDS011;5278;42.656;23.374;2023-02-01T10:49:50;6.37;;;2.03;;
10461;SDS011;5278;42.656;23.374;2023-02-01T10:52:28;2.37;;;1.90;;
10461;SDS011;5278;42.656;23.374;2023-02-01T10:58:03;4.77;;;2.27;;
10461;SDS011;5278;42.656;23.374;2023-02-01T11:00:34;6.80;;;3.07;;
10461;SDS011;5278;42.656;23.374;2023-02-01T11:05:58;3.43;;;2.60;;
10461;SDS011;5278;42.656;23.374;2023-02-01T11:08:28;4.37;;;2.60;;
10461;SDS011;5278;42.656;23.374;2023-02-01T11:10:57;3.10;;;1.90;;
10461;SDS011;5278;42.656;23.374;2023-02-01T11:13:28;3.93;;;2.27;;
10461;SDS011;5278;42.656;23.374;2023-02-01T11:15:57;2.60;;;2.10;;
10461;SDS011;5278;42.656;23.374;2023-02-01T11:18:29;5.90;;;2.63;;
10461;SDS011;5278;42.656;23.374;2023-02-01T11:20:57;4.40;;;2.27;;
10461;SDS011;5278;42.656;23.374;2023-02-01T11:23:26;9.20;;;3.17;;
10461;SDS011;5278;42.656;23.374;2023-02-01T11:25:59;3.10;;;1.60;;
10461;SDS011;5278;42.656;23.374;2023-02-01T11:28:28;2.47;;;1.80;;
10461;SDS011;5278;42.656;23.374;2023-02-01T11:30:58;3.30;;;2.00;;
10461;SDS011;5278;42.656;23.374;2023-02-01T11:33:30;5.30;;;2.40;;
10461;SDS011;5278;42.656;23.374;2023-02-01T11:36:00;2.50;;;1.60;;
10461;SDS011;5278;42.656;23.374;2023-02-01T11:38:36;2.90;;;1.80;;
10461;SDS011;5278;42.656;23.374;2023-02-01T11:41:11;3.70;;;1.60;;
10461;SDS011;5278;42.656;23.374;2023-02-01T11:43:49;5.03;;;2.00;;
10461;SDS011;5278;42.656;23.374;2023-02-01T11:46:22;2.03;;;1.63;;
10461;SDS011;5278;42.656;23.374;2023-02-01T11:48:52;3.80;;;1.87;;
10461;SDS011;5278;42.656;23.374;2023-02-01T11:51:30;2.00;;;1.80;;
10461;SDS011;5278;42.656;23.374;2023-02-01T11:54:22;4.03;;;1.70;;
10461;SDS011;5278;42.656;23.374;2023-02-01T11:57:07;3.53;;;1.37;;
10461;SDS011;5278;42.656;23.374;2023-02-01T12:00:02;2.70;;;1.60;;
10461;SDS011;5278;42.656;23.374;2023-02-01T12:06:10;1.67;;;1.57;;
10461;SDS011;5278;42.656;23.374;2023-02-01T12:08:53;1.90;;;1.60;;
10461;SDS011;5278;42.656;23.374;2023-02-01T12:11:43;2.43;;;1.67;;
10461;SDS011;5278;42.656;23.374;2023-02-01T12:14:22;1.67;;;1.57;;
10461;SDS011;5278;42.656;23.374;2023-02-01T12:17:11;4.33;;;2.00;;
10461;SDS011;5278;42.656;23.374;2023-02-01T12:20:01;4.53;;;2.10;;
10461;SDS011;5278;42.656;23.374;2023-02-01T12:22:40;3.50;;;2.20;;
10461;SDS011;5278;42.656;23.374;2023-02-01T12:25:20;2.30;;;1.93;;
10461;SDS011;5278;42.656;23.374;2023-02-01T12:28:07;3.13;;;1.40;;
10461;SDS011;5278;42.656;23.374;2023-02-01T12:30:52;2.30;;;1.60;;
10461;SDS011;5278;42.656;23.374;2023-02-01T12:33:35;3.10;;;1.63;;
10461;SDS011;5278;42.656;23.374;2023-02-01T12:36:17;2.00;;;1.70;;
10461;SDS011;5278;42.656;23.374;2023-02-01T12:38:55;2.77;;;1.63;;
10461;SDS011;5278;42.656;23.374;2023-02-01T12:41:41;1.80;;;1.63;;
10461;SDS011;5278;42.656;23.374;2023-02-01T12:47:14;1.70;;;1.60;;
10461;SDS011;5278;42.656;23.374;2023-02-01T12:49:50;2.50;;;1.73;;
10461;SDS011;5278;42.656;23.374;2023-02-01T12:52:23;2.00;;;1.60;;
10461;SDS011;5278;42.656;23.374;2023-02-01T12:55:01;1.87;;;1.70;;
10461;SDS011;5278;42.656;23.374;2023-02-01T12:57:35;2.47;;;1.40;;
10461;SDS011;5278;42.656;23.374;2023-02-01T13:00:13;3.83;;;1.83;;
10461;SDS011;5278;42.656;23.374;2023-02-01T13:02:49;2.97;;;1.47;;
10461;SDS011;5278;42.656;23.374;2023-02-01T13:05:19;2.90;;;1.83;;
10461;SDS011;5278;42.656;23.374;2023-02-01T13:07:50;1.73;;;1.50;;
10461;SDS011;5278;42.656;23.374;2023-02-01T13:10:26;4.20;;;1.83;;
10461;SDS011;5278;42.656;23.374;2023-02-01T13:13:02;2.97;;;1.80;;
10461;SDS011;5278;42.656;23.374;2023-02-01T13:15:38;3.03;;;1.30;;
10461;SDS011;5278;42.656;23.374;2023-02-01T13:18:10;2.40;;;1.70;;
10461;SDS011;5278;42.656;23.374;2023-02-01T13:20:45;5.40;;;2.00;;
10461;SDS011;5278;42.656;23.374;2023-02-01T13:23:22;3.00;;;1.60;;
10461;SDS011;5278;42.656;23.374;2023-02-01T13:25:53;2.83;;;1.80;;
10461;SDS011;5278;42.656;23.374;2023-02-01T13:28:24;2.73;;;1.67;;
10461;SDS011;5278;42.656;23.374;2023-02-01T13:31:10;2.07;;;1.73;;
10461;SDS011;5278;42.656;23.374;2023-02-01T13:34:26;2.37;;;1.63;;
10461;SDS011;5278;42.656;23.374;2023-02-01T13:37:23;2.20;;;1.90;;
10461;SDS011;5278;42.656;23.374;2023-02-01T13:42:58;2.20;;;1.40;;
10461;SDS011;5278;42.656;23.374;2023-02-01T13:45:29;3.50;;;1.50;;
10461;SDS011;5278;42.656;23.374;2023-02-01T13:48:01;4.67;;;1.87;;
10461;SDS011;5278;42.656;23.374;2023-02-01T13:50:32;2.67;;;1.90;;
10461;SDS011;5278;42.656;23.374;2023-02-01T13:53:03;3.10;;;1.87;;
10461;SDS011;5278;42.656;23.374;2023-02-01T13:55:40;4.67;;;1.70;;
10461;SDS011;5278;42.656;23.374;2023-02-01T13:58:13;4.60;;;1.87;;
10461;SDS011;5278;42.656;23.374;2023-02-01T14:00:44;3.73;;;1.80;;
10461;SDS011;5278;42.656;23.374;2023-02-01T14:03:14;2.00;;;1.60;;
10461;SDS011;5278;42.656;23.374;2023-02-01T14:05:56;2.67;;;1.57;;
10461;SDS011;5278;42.656;23.374;2023-02-01T14:08:42;2.57;;;1.77;;
10461;SDS011;5278;42.656;23.374;2023-02-01T14:11:31;1.60;;;1.50;;
10461;SDS011;5278;42.656;23.374;2023-02-01T14:14:36;2.03;;;1.60;;
10461;SDS011;5278;42.656;23.374;2023-02-01T14:23:25;3.87;;;1.87;;
10461;SDS011;5278;42.656;23.374;2023-02-01T14:26:05;2.03;;;1.73;;
10461;SDS011;5278;42.656;23.374;2023-02-01T14:28:36;2.73;;;1.77;;
10461;SDS011;5278;42.656;23.374;2023-02-01T14:34:15;3.10;;;1.80;;
10461;SDS011;5278;42.656;23.374;2023-02-01T14:36:55;1.43;;;1.33;;
10461;SDS011;5278;42.656;23.374;2023-02-01T14:39:27;3.70;;;2.10;;
10461;SDS011;5278;42.656;23.374;2023-02-01T14:41:59;1.93;;;1.70;;
10461;SDS011;5278;42.656;23.374;2023-02-01T14:44:29;4.27;;;2.00;;
10461;SDS011;5278;42.656;23.374;2023-02-01T14:47:26;4.80;;;1.83;;
10461;SDS011;5278;42.656;23.374;2023-02-01T14:49:56;2.93;;;1.50;;
10461;SDS011;5278;42.656;23.374;2023-02-01T14:52:29;2.53;;;1.83;;
10461;SDS011;5278;42.656;23.374;2023-02-01T14:55:03;2.13;;;1.77;;
10461;SDS011;5278;42.656;23.374;2023-02-01T14:57:36;1.70;;;1.60;;
10461;SDS011;5278;42.656;23.374;2023-02-01T15:00:21;3.60;;;1.80;;
10461;SDS011;5278;42.656;23.374;2023-02-01T15:02:53;1.77;;;1.50;;
10461;SDS011;5278;42.656;23.374;2023-02-01T15:05:28;2.37;;;2.17;;
10461;SDS011;5278;42.656;23.374;2023-02-01T15:07:58;2.40;;;2.13;;
10461;SDS011;5278;42.656;23.374;2023-02-01T15:10:32;5.37;;;2.10;;
10461;SDS011;5278;42.656;23.374;2023-02-01T15:13:11;2.40;;;2.00;;
10461;SDS011;5278;42.656;23.374;2023-02-01T15:15:45;3.03;;;1.93;;
10461;SDS011;5278;42.656;23.374;2023-02-01T15:18:25;2.83;;;1.63;;
10461;SDS011;5278;42.656;23.374;2023-02-01T15:20:55;2.30;;;1.80;;
10461;SDS011;5278;42.656;23.374;2023-02-01T15:23:23;3.23;;;1.67;;
10461;SDS011;5278;42.656;23.374;2023-02-01T15:25:54;3.77;;;2.13;;
10461;SDS011;5278;42.656;23.374;2023-02-01T15:28:21;3.77;;;1.80;;
10461;SDS011;5278;42.656;23.374;2023-02-01T15:30:53;3.47;;;2.20;;
10461;SDS011;5278;42.656;23.374;2023-02-01T15:33:22;7.33;;;1.77;;
10461;SDS011;5278;42.656;23.374;2023-02-01T15:35:50;2.87;;;1.83;;
10461;SDS011;5278;42.656;23.374;2023-02-01T15:41:09;2.33;;;1.70;;
10461;SDS011;5278;42.656;23.374;2023-02-01T15:43:47;3.30;;;1.80;;
10461;SDS011;5278;42.656;23.374;2023-02-01T15:46:31;1.80;;;1.70;;
10461;SDS011;5278;42.656;23.374;2023-02-01T15:49:01;3.03;;;1.77;;
10461;SDS011;5278;42.656;23.374;2023-02-01T15:51:29;1.50;;;1.27;;
10461;SDS011;5278;42.656;23.374;2023-02-01T15:53:58;3.17;;;1.93;;
10461;SDS011;5278;42.656;23.374;2023-02-01T15:56:32;2.63;;;1.80;;
10461;SDS011;5278;42.656;23.374;2023-02-01T15:59:02;3.33;;;1.70;;
10461;SDS011;5278;42.656;23.374;2023-02-01T16:01:34;2.43;;;2.03;;
10461;SDS011;5278;42.656;23.374;2023-02-01T16:04:04;2.67;;;1.40;;
10461;SDS011;5278;42.656;23.374;2023-02-01T16:06:45;6.73;;;4.83;;